sensor_id;sensor_type;location;lat;lon;timestamp;temperature;humidity
31991;DHT22;18508;49.386;8.370;2023-06-05T00:00:37;15.30;99.90
31991;DHT22;18508;49.386;8.370;2023-06-05T00:03:10;14.80;99.90
31991;DHT22;18508;49.386;8.370;2023-06-05T00:05:40;15.20;99.90
31991;DHT22;18508;49.386;8.370;2023-06-05T00:08:10;15.20;99.90
31991;DHT22;18508;49.386;8.370;2023-06-05T00:15:39;15.30;99.90
31991;DHT22;18508;49.386;8.370;2023-06-05T00:18:08;14.90;99.90
31991;DHT22;18508;49.386;8.370;2023-06-05T00:23:09;15.10;99.90
31991;DHT22;18508;49.386;8.370;2023-06-05T00:25:40;15.00;99.90
31991;DHT22;18508;49.386;8.370;2023-06-05T00:33:08;14.90;99.90
31991;DHT22;18508;49.386;8.370;2023-06-05T00:35:39;14.90;99.90
31991;DHT22;18508;49.386;8.370;2023-06-05T00:38:12;14.90;99.90
31991;DHT22;18508;49.386;8.370;2023-06-05T00:40:41;14.80;99.90
31991;DHT22;18508;49.386;8.370;2023-06-05T00:45:39;14.60;99.90
31991;DHT22;18508;49.386;8.370;2023-06-05T00:50:37;14.70;99.90
31991;DHT22;18508;49.386;8.370;2023-06-05T00:53:07;14.80;99.90
31991;DHT22;18508;49.386;8.370;2023-06-05T00:55:38;14.80;99.90
31991;DHT22;18508;49.386;8.370;2023-06-05T00:58:06;14.70;99.90
31991;DHT22;18508;49.386;8.370;2023-06-05T01:00:35;14.60;99.90
31991;DHT22;18508;49.386;8.370;2023-06-05T01:03:04;14.60;99.90
31991;DHT22;18508;49.386;8.370;2023-06-05T01:05:35;16.80;99.90
31991;DHT22;18508;49.386;8.370;2023-06-05T01:08:04;14.50;99.90
31991;DHT22;18508;49.386;8.370;2023-06-05T01:10:35;14.70;99.90
31991;DHT22;18508;49.386;8.370;2023-06-05T01:13:10;14.50;99.90
31991;DHT22;18508;49.386;8.370;2023-06-05T01:15:40;14.50;99.90
31991;DHT22;18508;49.386;8.370;2023-06-05T01:18:10;14.50;99.90
31991;DHT22;18508;49.386;8.370;2023-06-05T01:20:39;14.50;99.90
31991;DHT22;18508;49.386;8.370;2023-06-05T01:23:10;14.50;99.90
31991;DHT22;18508;49.386;8.370;2023-06-05T01:25:39;14.50;99.90
31991;DHT22;18508;49.386;8.370;2023-06-05T01:28:12;14.40;99.90
31991;DHT22;18508;49.386;8.370;2023-06-05T01:30:46;14.40;99.90
31991;DHT22;18508;49.386;8.370;2023-06-05T01:33:26;14.40;99.90
31991;DHT22;18508;49.386;8.370;2023-06-05T01:35:58;14.40;99.90
31991;DHT22;18508;49.386;8.370;2023-06-05T01:38:34;14.40;99.90
31991;DHT22;18508;49.386;8.370;2023-06-05T01:41:04;14.20;99.90
31991;DHT22;18508;49.386;8.370;2023-06-05T01:43:34;14.30;99.90
31991;DHT22;18508;49.386;8.370;2023-06-05T01:46:05;14.30;99.90
31991;DHT22;18508;49.386;8.370;2023-06-05T01:48:35;14.30;99.90
31991;DHT22;18508;49.386;8.370;2023-06-05T01:51:06;14.30;99.90
31991;DHT22;18508;49.386;8.370;2023-06-05T01:53:36;14.30;99.90
31991;DHT22;18508;49.386;8.370;2023-06-05T01:56:05;14.30;99.90
31991;DHT22;18508;49.386;8.370;2023-06-05T01:58:35;14.20;99.90
31991;DHT22;18508;49.386;8.370;2023-06-05T02:01:04;14.20;99.90
31991;DHT22;18508;49.386;8.370;2023-06-05T02:03:33;14.10;99.90
31991;DHT22;18508;49.386;8.370;2023-06-05T02:06:01;14.10;99.90
31991;DHT22;18508;49.386;8.370;2023-06-05T02:08:30;14.10;99.90
31991;DHT22;18508;49.386;8.370;2023-06-05T02:11:00;14.10;99.90
31991;DHT22;18508;49.386;8.370;2023-06-05T02:13:29;14.10;99.90
31991;DHT22;18508;49.386;8.370;2023-06-05T02:16:02;14.00;99.90
31991;DHT22;18508;49.386;8.370;2023-06-05T02:18:30;14.00;99.90
31991;DHT22;18508;49.386;8.370;2023-06-05T02:21:00;14.00;99.90
31991;DHT22;18508;49.386;8.370;2023-06-05T02:23:29;13.80;99.90
31991;DHT22;18508;49.386;8.370;2023-06-05T02:26:00;13.90;1.00
31991;DHT22;18508;49.386;8.370;2023-06-05T02:28:28;13.80;1.00
31991;DHT22;18508;49.386;8.370;2023-06-05T02:30:57;13.90;1.00
31991;DHT22;18508;49.386;8.370;2023-06-05T02:33:26;13.80;1.00
31991;DHT22;18508;49.386;8.370;2023-06-05T02:35:55;13.80;1.00
31991;DHT22;18508;49.386;8.370;2023-06-05T02:38:23;16.90;1.00
31991;DHT22;18508;49.386;8.370;2023-06-05T02:40:51;13.70;7.80
31991;DHT22;18508;49.386;8.370;2023-06-05T02:43:21;13.70;1.00
31991;DHT22;18508;49.386;8.370;2023-06-05T02:45:49;13.60;1.00
31991;DHT22;18508;49.386;8.370;2023-06-05T02:48:17;13.60;1.00
31991;DHT22;18508;49.386;8.370;2023-06-05T02:50:46;13.60;1.00
31991;DHT22;18508;49.386;8.370;2023-06-05T02:53:15;13.60;46.90
31991;DHT22;18508;49.386;8.370;2023-06-05T02:55:44;13.50;44.10
31991;DHT22;18508;49.386;8.370;2023-06-05T02:58:13;13.50;99.90
31991;DHT22;18508;49.386;8.370;2023-06-05T03:00:44;13.50;99.90
31991;DHT22;18508;49.386;8.370;2023-06-05T03:03:14;13.40;99.90
31991;DHT22;18508;49.386;8.370;2023-06-05T03:05:44;13.40;99.90
31991;DHT22;18508;49.386;8.370;2023-06-05T03:08:12;13.40;99.90
31991;DHT22;18508;49.386;8.370;2023-06-05T03:10:41;13.30;99.90
31991;DHT22;18508;49.386;8.370;2023-06-05T03:13:10;13.70;99.90
31991;DHT22;18508;49.386;8.370;2023-06-05T03:15:39;13.30;99.90
31991;DHT22;18508;49.386;8.370;2023-06-05T03:18:11;13.30;99.90
31991;DHT22;18508;49.386;8.370;2023-06-05T03:20:39;13.30;99.90
31991;DHT22;18508;49.386;8.370;2023-06-05T03:23:08;13.20;99.90
31991;DHT22;18508;49.386;8.370;2023-06-05T03:25:38;13.20;99.90
31991;DHT22;18508;49.386;8.370;2023-06-05T03:28:07;13.20;99.90
31991;DHT22;18508;49.386;8.370;2023-06-05T03:30:35;13.20;99.90
31991;DHT22;18508;49.386;8.370;2023-06-05T03:33:05;13.20;99.90
31991;DHT22;18508;49.386;8.370;2023-06-05T03:35:36;13.20;99.90
31991;DHT22;18508;49.386;8.370;2023-06-05T03:38:06;13.20;99.90
31991;DHT22;18508;49.386;8.370;2023-06-05T03:40:35;13.20;99.90
31991;DHT22;18508;49.386;8.370;2023-06-05T03:43:07;13.10;99.90
31991;DHT22;18508;49.386;8.370;2023-06-05T03:45:37;13.10;99.90
31991;DHT22;18508;49.386;8.370;2023-06-05T03:48:07;13.10;99.90
31991;DHT22;18508;49.386;8.370;2023-06-05T03:50:38;13.10;99.90
31991;DHT22;18508;49.386;8.370;2023-06-05T03:53:08;13.10;99.90
31991;DHT22;18508;49.386;8.370;2023-06-05T03:55:37;13.10;99.90
31991;DHT22;18508;49.386;8.370;2023-06-05T03:58:17;13.10;99.90
31991;DHT22;18508;49.386;8.370;2023-06-05T04:00:47;13.10;99.90
31991;DHT22;18508;49.386;8.370;2023-06-05T04:03:41;13.00;99.90
31991;DHT22;18508;49.386;8.370;2023-06-05T04:06:09;13.10;99.90
31991;DHT22;18508;49.386;8.370;2023-06-05T04:08:37;13.10;99.90
31991;DHT22;18508;49.386;8.370;2023-06-05T04:11:05;13.10;99.90
31991;DHT22;18508;49.386;8.370;2023-06-05T04:13:34;13.10;99.90
31991;DHT22;18508;49.386;8.370;2023-06-05T04:16:02;13.20;99.90
31991;DHT22;18508;49.386;8.370;2023-06-05T04:18:30;13.20;99.90
31991;DHT22;18508;49.386;8.370;2023-06-05T04:21:00;13.20;99.90
31991;DHT22;18508;49.386;8.370;2023-06-05T04:23:28;13.30;99.90
31991;DHT22;18508;49.386;8.370;2023-06-05T04:25:56;13.30;99.90
31991;DHT22;18508;49.386;8.370;2023-06-05T04:28:24;13.30;99.90
31991;DHT22;18508;49.386;8.370;2023-06-05T04:30:53;13.40;99.90
31991;DHT22;18508;49.386;8.370;2023-06-05T04:33:22;13.40;99.90
31991;DHT22;18508;49.386;8.370;2023-06-05T04:35:50;13.40;99.90
31991;DHT22;18508;49.386;8.370;2023-06-05T04:38:21;13.50;99.90
31991;DHT22;18508;49.386;8.370;2023-06-05T04:40:49;13.50;99.90
31991;DHT22;18508;49.386;8.370;2023-06-05T04:43:18;13.50;99.90
31991;DHT22;18508;49.386;8.370;2023-06-05T04:45:46;13.60;99.90
31991;DHT22;18508;49.386;8.370;2023-06-05T04:48:14;13.60;99.90
31991;DHT22;18508;49.386;8.370;2023-06-05T04:50:42;13.70;99.90
31991;DHT22;18508;49.386;8.370;2023-06-05T04:53:10;13.70;99.90
31991;DHT22;18508;49.386;8.370;2023-06-05T04:55:40;13.80;99.90
31991;DHT22;18508;49.386;8.370;2023-06-05T04:58:08;13.90;99.90
31991;DHT22;18508;49.386;8.370;2023-06-05T05:00:36;13.90;99.90
31991;DHT22;18508;49.386;8.370;2023-06-05T05:03:06;14.00;99.90
31991;DHT22;18508;49.386;8.370;2023-06-05T05:05:35;14.10;99.90
31991;DHT22;18508;49.386;8.370;2023-06-05T05:08:03;14.10;99.90
31991;DHT22;18508;49.386;8.370;2023-06-05T05:10:32;14.20;99.90
31991;DHT22;18508;49.386;8.370;2023-06-05T05:13:01;14.30;99.90
31991;DHT22;18508;49.386;8.370;2023-06-05T05:15:29;14.40;99.90
31991;DHT22;18508;49.386;8.370;2023-06-05T05:17:58;14.40;99.90
31991;DHT22;18508;49.386;8.370;2023-06-05T05:20:30;14.60;99.90
31991;DHT22;18508;49.386;8.370;2023-06-05T05:22:59;14.60;99.90
31991;DHT22;18508;49.386;8.370;2023-06-05T05:25:28;14.70;75.30
31991;DHT22;18508;49.386;8.370;2023-06-05T05:27:56;14.80;1.00
31991;DHT22;18508;49.386;8.370;2023-06-05T05:30:26;15.00;1.60
31991;DHT22;18508;49.386;8.370;2023-06-05T05:32:56;15.10;1.00
31991;DHT22;18508;49.386;8.370;2023-06-05T05:35:24;15.30;1.00
31991;DHT22;18508;49.386;8.370;2023-06-05T05:37:53;15.50;1.00
31991;DHT22;18508;49.386;8.370;2023-06-05T05:40:21;15.70;18.30
31991;DHT22;18508;49.386;8.370;2023-06-05T05:42:49;15.70;1.00
31991;DHT22;18508;49.386;8.370;2023-06-05T05:45:18;15.90;1.00
31991;DHT22;18508;49.386;8.370;2023-06-05T05:47:47;16.00;1.00
31991;DHT22;18508;49.386;8.370;2023-06-05T05:50:15;16.10;1.00
31991;DHT22;18508;49.386;8.370;2023-06-05T05:52:43;16.10;1.00
31991;DHT22;18508;49.386;8.370;2023-06-05T05:55:12;16.20;99.90
31991;DHT22;18508;49.386;8.370;2023-06-05T05:57:40;16.30;99.90
31991;DHT22;18508;49.386;8.370;2023-06-05T06:00:10;16.40;99.90
31991;DHT22;18508;49.386;8.370;2023-06-05T06:02:39;16.50;99.90
31991;DHT22;18508;49.386;8.370;2023-06-05T06:05:10;16.50;99.90
31991;DHT22;18508;49.386;8.370;2023-06-05T06:07:39;16.60;99.90
31991;DHT22;18508;49.386;8.370;2023-06-05T06:10:09;16.80;99.90
31991;DHT22;18508;49.386;8.370;2023-06-05T06:12:39;16.80;99.90
31991;DHT22;18508;49.386;8.370;2023-06-05T06:15:08;16.90;99.90
31991;DHT22;18508;49.386;8.370;2023-06-05T06:17:37;17.00;99.90
31991;DHT22;18508;49.386;8.370;2023-06-05T06:20:06;17.10;80.90
31991;DHT22;18508;49.386;8.370;2023-06-05T06:22:38;17.20;75.10
31991;DHT22;18508;49.386;8.370;2023-06-05T06:25:08;17.30;1.00
31991;DHT22;18508;49.386;8.370;2023-06-05T06:27:37;17.50;67.50
31991;DHT22;18508;49.386;8.370;2023-06-05T06:30:06;17.60;1.00
31991;DHT22;18508;49.386;8.370;2023-06-05T06:32:35;17.60;1.00
31991;DHT22;18508;49.386;8.370;2023-06-05T06:35:04;17.80;1.00
31991;DHT22;18508;49.386;8.370;2023-06-05T06:37:33;17.80;1.00
31991;DHT22;18508;49.386;8.370;2023-06-05T06:40:03;17.90;1.00
31991;DHT22;18508;49.386;8.370;2023-06-05T06:42:35;18.10;1.00
31991;DHT22;18508;49.386;8.370;2023-06-05T06:45:05;18.20;1.00
31991;DHT22;18508;49.386;8.370;2023-06-05T06:47:33;18.30;1.00
31991;DHT22;18508;49.386;8.370;2023-06-05T06:50:01;18.40;1.00
31991;DHT22;18508;49.386;8.370;2023-06-05T06:52:30;18.50;1.00
31991;DHT22;18508;49.386;8.370;2023-06-05T06:54:58;18.60;1.00
31991;DHT22;18508;49.386;8.370;2023-06-05T06:57:28;18.80;1.00
31991;DHT22;18508;49.386;8.370;2023-06-05T06:59:56;18.90;99.90
31991;DHT22;18508;49.386;8.370;2023-06-05T07:02:25;19.00;1.00
31991;DHT22;18508;49.386;8.370;2023-06-05T07:04:53;19.20;99.90
31991;DHT22;18508;49.386;8.370;2023-06-05T07:07:21;19.20;99.90
31991;DHT22;18508;49.386;8.370;2023-06-05T07:09:50;19.40;99.90
31991;DHT22;18508;49.386;8.370;2023-06-05T07:12:19;19.40;99.90
31991;DHT22;18508;49.386;8.370;2023-06-05T07:14:51;19.50;99.90
31991;DHT22;18508;49.386;8.370;2023-06-05T07:17:21;19.70;99.90
31991;DHT22;18508;49.386;8.370;2023-06-05T07:19:49;19.80;99.90
31991;DHT22;18508;49.386;8.370;2023-06-05T07:22:17;20.00;99.90
31991;DHT22;18508;49.386;8.370;2023-06-05T07:24:45;20.00;99.90
31991;DHT22;18508;49.386;8.370;2023-06-05T07:27:15;20.10;99.90
31991;DHT22;18508;49.386;8.370;2023-06-05T07:29:45;20.20;99.90
31991;DHT22;18508;49.386;8.370;2023-06-05T07:32:18;20.20;24.60
31991;DHT22;18508;49.386;8.370;2023-06-05T07:34:47;20.30;13.40
31991;DHT22;18508;49.386;8.370;2023-06-05T07:37:15;20.40;1.00
31991;DHT22;18508;49.386;8.370;2023-06-05T07:39:43;20.50;99.90
31991;DHT22;18508;49.386;8.370;2023-06-05T07:42:11;20.70;99.90
31991;DHT22;18508;49.386;8.370;2023-06-05T07:44:42;20.70;99.90
31991;DHT22;18508;49.386;8.370;2023-06-05T07:47:13;20.80;99.90
31991;DHT22;18508;49.386;8.370;2023-06-05T07:49:43;20.90;99.90
31991;DHT22;18508;49.386;8.370;2023-06-05T07:52:11;21.10;1.00
31991;DHT22;18508;49.386;8.370;2023-06-05T07:54:39;21.10;73.10
31991;DHT22;18508;49.386;8.370;2023-06-05T07:57:07;21.20;99.90
31991;DHT22;18508;49.386;8.370;2023-06-05T07:59:36;21.20;99.90
31991;DHT22;18508;49.386;8.370;2023-06-05T08:02:05;21.30;99.90
31991;DHT22;18508;49.386;8.370;2023-06-05T08:04:34;21.20;99.90
31991;DHT22;18508;49.386;8.370;2023-06-05T08:07:04;21.50;99.90
31991;DHT22;18508;49.386;8.370;2023-06-05T08:09:32;21.60;1.00
31991;DHT22;18508;49.386;8.370;2023-06-05T08:12:05;21.60;99.90
31991;DHT22;18508;49.386;8.370;2023-06-05T08:14:34;21.60;99.90
31991;DHT22;18508;49.386;8.370;2023-06-05T08:17:03;21.60;1.00
31991;DHT22;18508;49.386;8.370;2023-06-05T08:19:32;21.70;99.90
31991;DHT22;18508;49.386;8.370;2023-06-05T08:22:00;21.70;1.00
31991;DHT22;18508;49.386;8.370;2023-06-05T08:24:31;21.80;99.90
31991;DHT22;18508;49.386;8.370;2023-06-05T08:26:59;21.80;99.90
31991;DHT22;18508;49.386;8.370;2023-06-05T08:29:27;21.80;1.00
31991;DHT22;18508;49.386;8.370;2023-06-05T08:31:56;21.90;1.00
31991;DHT22;18508;49.386;8.370;2023-06-05T08:34:25;22.20;99.90
31991;DHT22;18508;49.386;8.370;2023-06-05T08:36:54;22.10;99.90
31991;DHT22;18508;49.386;8.370;2023-06-05T08:39:25;22.20;1.00
31991;DHT22;18508;49.386;8.370;2023-06-05T08:41:57;22.30;99.90
31991;DHT22;18508;49.386;8.370;2023-06-05T08:44:29;22.40;17.80
31991;DHT22;18508;49.386;8.370;2023-06-05T08:47:00;22.40;1.00
31991;DHT22;18508;49.386;8.370;2023-06-05T08:49:29;22.50;99.90
31991;DHT22;18508;49.386;8.370;2023-06-05T08:52:05;22.50;1.00
31991;DHT22;18508;49.386;8.370;2023-06-05T08:54:37;22.60;1.00
31991;DHT22;18508;49.386;8.370;2023-06-05T08:57:08;22.60;99.90
31991;DHT22;18508;49.386;8.370;2023-06-05T08:59:38;22.60;1.00
31991;DHT22;18508;49.386;8.370;2023-06-05T09:02:08;22.70;1.00
31991;DHT22;18508;49.386;8.370;2023-06-05T09:04:38;22.70;99.90
31991;DHT22;18508;49.386;8.370;2023-06-05T09:07:07;22.70;99.90
31991;DHT22;18508;49.386;8.370;2023-06-05T09:09:36;22.90;1.00
31991;DHT22;18508;49.386;8.370;2023-06-05T09:12:05;23.00;1.00
31991;DHT22;18508;49.386;8.370;2023-06-05T09:14:35;23.00;99.90
31991;DHT22;18508;49.386;8.370;2023-06-05T09:17:03;23.10;99.90
31991;DHT22;18508;49.386;8.370;2023-06-05T09:19:36;23.20;43.40
31991;DHT22;18508;49.386;8.370;2023-06-05T09:22:06;23.20;99.90
31991;DHT22;18508;49.386;8.370;2023-06-05T09:24:35;23.20;99.90
31991;DHT22;18508;49.386;8.370;2023-06-05T09:27:04;23.30;99.90
31991;DHT22;18508;49.386;8.370;2023-06-05T09:29:35;23.40;99.90
31991;DHT22;18508;49.386;8.370;2023-06-05T09:32:06;23.40;99.90
31991;DHT22;18508;49.386;8.370;2023-06-05T09:34:36;23.40;99.90
31991;DHT22;18508;49.386;8.370;2023-06-05T09:37:05;23.30;99.90
31991;DHT22;18508;49.386;8.370;2023-06-05T09:39:35;23.40;99.90
31991;DHT22;18508;49.386;8.370;2023-06-05T09:42:05;23.50;1.00
31991;DHT22;18508;49.386;8.370;2023-06-05T09:44:36;23.70;99.90
31991;DHT22;18508;49.386;8.370;2023-06-05T09:47:06;23.80;1.00
31991;DHT22;18508;49.386;8.370;2023-06-05T09:49:46;24.00;99.90
31991;DHT22;18508;49.386;8.370;2023-06-05T09:52:15;24.10;99.90
31991;DHT22;18508;49.386;8.370;2023-06-05T09:54:54;24.10;1.00
31991;DHT22;18508;49.386;8.370;2023-06-05T09:57:24;24.10;1.00
31991;DHT22;18508;49.386;8.370;2023-06-05T09:59:55;24.20;99.90
31991;DHT22;18508;49.386;8.370;2023-06-05T10:02:26;24.40;99.90
31991;DHT22;18508;49.386;8.370;2023-06-05T10:05:00;24.40;99.90
31991;DHT22;18508;49.386;8.370;2023-06-05T10:07:31;24.60;1.00
31991;DHT22;18508;49.386;8.370;2023-06-05T10:10:00;24.80;99.90
31991;DHT22;18508;49.386;8.370;2023-06-05T10:12:30;24.70;99.90
31991;DHT22;18508;49.386;8.370;2023-06-05T10:15:01;24.70;1.00
31991;DHT22;18508;49.386;8.370;2023-06-05T10:17:30;24.60;1.00
31991;DHT22;18508;49.386;8.370;2023-06-05T10:19:59;24.70;99.90
31991;DHT22;18508;49.386;8.370;2023-06-05T10:22:29;24.80;99.90
31991;DHT22;18508;49.386;8.370;2023-06-05T10:25:00;25.00;99.90
31991;DHT22;18508;49.386;8.370;2023-06-05T10:27:47;25.10;99.90
31991;DHT22;18508;49.386;8.370;2023-06-05T10:30:51;25.20;99.90
31991;DHT22;18508;49.386;8.370;2023-06-05T10:33:31;25.30;1.00
31991;DHT22;18508;49.386;8.370;2023-06-05T10:36:10;25.20;1.00
31991;DHT22;18508;49.386;8.370;2023-06-05T10:38:43;25.20;1.00
31991;DHT22;18508;49.386;8.370;2023-06-05T10:41:12;25.30;1.00
31991;DHT22;18508;49.386;8.370;2023-06-05T10:43:48;25.50;99.90
31991;DHT22;18508;49.386;8.370;2023-06-05T10:46:31;25.50;99.90
31991;DHT22;18508;49.386;8.370;2023-06-05T10:49:12;25.60;99.90
31991;DHT22;18508;49.386;8.370;2023-06-05T10:51:43;25.70;99.90
31991;DHT22;18508;49.386;8.370;2023-06-05T10:54:13;25.80;99.90
31991;DHT22;18508;49.386;8.370;2023-06-05T10:56:53;25.90;99.90
31991;DHT22;18508;49.386;8.370;2023-06-05T10:59:24;26.00;99.90
31991;DHT22;18508;49.386;8.370;2023-06-05T11:02:25;26.00;99.90
31991;DHT22;18508;49.386;8.370;2023-06-05T11:05:07;26.00;99.90
31991;DHT22;18508;49.386;8.370;2023-06-05T11:07:40;26.10;91.10
31991;DHT22;18508;49.386;8.370;2023-06-05T11:10:12;26.20;8.10
31991;DHT22;18508;49.386;8.370;2023-06-05T11:13:02;26.40;99.90
31991;DHT22;18508;49.386;8.370;2023-06-05T11:15:41;26.60;99.90
31991;DHT22;18508;49.386;8.370;2023-06-05T11:18:42;26.80;84.10
31991;DHT22;18508;49.386;8.370;2023-06-05T11:21:11;26.80;99.90
31991;DHT22;18508;49.386;8.370;2023-06-05T11:23:40;27.00;99.90
31991;DHT22;18508;49.386;8.370;2023-06-05T11:26:40;26.90;99.90
31991;DHT22;18508;49.386;8.370;2023-06-05T11:29:14;27.10;99.90
31991;DHT22;18508;49.386;8.370;2023-06-05T11:31:44;27.10;99.90
31991;DHT22;18508;49.386;8.370;2023-06-05T11:34:15;27.30;99.90
31991;DHT22;18508;49.386;8.370;2023-06-05T11:36:44;27.60;99.90
31991;DHT22;18508;49.386;8.370;2023-06-05T11:39:13;27.60;99.90
31991;DHT22;18508;49.386;8.370;2023-06-05T11:41:45;27.80;99.90
31991;DHT22;18508;49.386;8.370;2023-06-05T11:44:13;28.00;99.90
31991;DHT22;18508;49.386;8.370;2023-06-05T11:46:42;27.90;99.90
31991;DHT22;18508;49.386;8.370;2023-06-05T11:49:25;28.40;1.00
31991;DHT22;18508;49.386;8.370;2023-06-05T11:51:54;28.50;1.00
31991;DHT22;18508;49.386;8.370;2023-06-05T11:54:27;28.30;99.90
31991;DHT22;18508;49.386;8.370;2023-06-05T11:57:00;28.50;1.00
31991;DHT22;18508;49.386;8.370;2023-06-05T11:59:35;28.70;1.00
31991;DHT22;18508;49.386;8.370;2023-06-05T12:02:04;28.90;99.90
31991;DHT22;18508;49.386;8.370;2023-06-05T12:04:36;28.80;92.00
31991;DHT22;18508;49.386;8.370;2023-06-05T12:07:06;28.80;99.90
31991;DHT22;18508;49.386;8.370;2023-06-05T12:09:34;28.70;99.90
31991;DHT22;18508;49.386;8.370;2023-06-05T12:12:07;28.50;99.90
31991;DHT22;18508;49.386;8.370;2023-06-05T12:14:36;28.10;99.90
31991;DHT22;18508;49.386;8.370;2023-06-05T12:17:11;27.90;99.90
31991;DHT22;18508;49.386;8.370;2023-06-05T12:19:41;27.70;99.90
31991;DHT22;18508;49.386;8.370;2023-06-05T12:22:13;27.30;1.00
31991;DHT22;18508;49.386;8.370;2023-06-05T12:24:41;27.30;99.90
31991;DHT22;18508;49.386;8.370;2023-06-05T12:27:10;27.60;1.00
31991;DHT22;18508;49.386;8.370;2023-06-05T12:29:50;28.10;99.90
31991;DHT22;18508;49.386;8.370;2023-06-05T12:32:22;28.40;1.00
31991;DHT22;18508;49.386;8.370;2023-06-05T12:34:52;28.40;99.90
31991;DHT22;18508;49.386;8.370;2023-06-05T12:37:31;28.40;99.90
31991;DHT22;18508;49.386;8.370;2023-06-05T12:40:01;28.30;99.90
31991;DHT22;18508;49.386;8.370;2023-06-05T12:42:36;27.90;99.90
31991;DHT22;18508;49.386;8.370;2023-06-05T12:45:08;28.00;57.80
31991;DHT22;18508;49.386;8.370;2023-06-05T12:47:37;28.00;99.90
31991;DHT22;18508;49.386;8.370;2023-06-05T12:50:08;28.30;74.20
31991;DHT22;18508;49.386;8.370;2023-06-05T12:52:40;29.00;99.90
31991;DHT22;18508;49.386;8.370;2023-06-05T12:55:09;29.30;1.00
31991;DHT22;18508;49.386;8.370;2023-06-05T12:57:37;29.70;99.90
31991;DHT22;18508;49.386;8.370;2023-06-05T13:00:07;30.00;99.90
31991;DHT22;18508;49.386;8.370;2023-06-05T13:02:42;30.00;99.90
31991;DHT22;18508;49.386;8.370;2023-06-05T13:05:14;30.00;99.90
31991;DHT22;18508;49.386;8.370;2023-06-05T13:07:42;29.60;99.90
31991;DHT22;18508;49.386;8.370;2023-06-05T13:10:11;29.30;1.00
31991;DHT22;18508;49.386;8.370;2023-06-05T13:12:39;28.70;99.90
31991;DHT22;18508;49.386;8.370;2023-06-05T13:15:10;28.40;1.00
31991;DHT22;18508;49.386;8.370;2023-06-05T13:17:39;28.60;99.90
31991;DHT22;18508;49.386;8.370;2023-06-05T13:20:08;28.90;1.00
31991;DHT22;18508;49.386;8.370;2023-06-05T13:22:39;29.10;99.90
31991;DHT22;18508;49.386;8.370;2023-06-05T13:25:08;29.80;1.00
31991;DHT22;18508;49.386;8.370;2023-06-05T13:27:37;30.40;1.00
31991;DHT22;18508;49.386;8.370;2023-06-05T13:30:06;30.50;1.00
31991;DHT22;18508;49.386;8.370;2023-06-05T13:32:35;31.40;99.90
31991;DHT22;18508;49.386;8.370;2023-06-05T13:35:06;32.20;1.00
31991;DHT22;18508;49.386;8.370;2023-06-05T13:37:35;32.50;99.90
31991;DHT22;18508;49.386;8.370;2023-06-05T13:40:06;33.00;99.90
31991;DHT22;18508;49.386;8.370;2023-06-05T13:42:37;33.40;99.90
31991;DHT22;18508;49.386;8.370;2023-06-05T13:45:06;33.40;24.40
31991;DHT22;18508;49.386;8.370;2023-06-05T13:47:35;33.70;1.00
31991;DHT22;18508;49.386;8.370;2023-06-05T13:50:04;33.70;1.00
31991;DHT22;18508;49.386;8.370;2023-06-05T13:52:32;33.90;1.00
31991;DHT22;18508;49.386;8.370;2023-06-05T13:55:01;34.40;1.00
31991;DHT22;18508;49.386;8.370;2023-06-05T13:57:31;34.80;1.00
31991;DHT22;18508;49.386;8.370;2023-06-05T14:00:00;34.90;1.00
31991;DHT22;18508;49.386;8.370;2023-06-05T14:02:28;34.90;1.00
31991;DHT22;18508;49.386;8.370;2023-06-05T14:04:56;35.70;1.00
31991;DHT22;18508;49.386;8.370;2023-06-05T14:07:24;35.10;1.00
31991;DHT22;18508;49.386;8.370;2023-06-05T14:10:07;35.20;1.00
31991;DHT22;18508;49.386;8.370;2023-06-05T14:12:37;35.10;1.00
31991;DHT22;18508;49.386;8.370;2023-06-05T14:15:06;34.90;1.00
31991;DHT22;18508;49.386;8.370;2023-06-05T14:17:34;35.00;1.00
31991;DHT22;18508;49.386;8.370;2023-06-05T14:20:03;35.20;1.00
31991;DHT22;18508;49.386;8.370;2023-06-05T14:22:31;35.40;1.00
31991;DHT22;18508;49.386;8.370;2023-06-05T14:24:59;35.30;1.00
31991;DHT22;18508;49.386;8.370;2023-06-05T14:27:27;35.00;1.00
31991;DHT22;18508;49.386;8.370;2023-06-05T14:29:57;35.20;1.00
31991;DHT22;18508;49.386;8.370;2023-06-05T14:32:25;35.20;1.00
31991;DHT22;18508;49.386;8.370;2023-06-05T14:34:56;35.20;1.00
31991;DHT22;18508;49.386;8.370;2023-06-05T14:37:24;35.40;1.00
31991;DHT22;18508;49.386;8.370;2023-06-05T14:39:53;35.60;1.00
31991;DHT22;18508;49.386;8.370;2023-06-05T14:42:22;35.70;1.00
31991;DHT22;18508;49.386;8.370;2023-06-05T14:44:50;35.70;1.00
31991;DHT22;18508;49.386;8.370;2023-06-05T14:47:19;35.90;1.00
31991;DHT22;18508;49.386;8.370;2023-06-05T14:49:47;35.40;1.00
31991;DHT22;18508;49.386;8.370;2023-06-05T14:52:16;35.50;1.00
31991;DHT22;18508;49.386;8.370;2023-06-05T14:54:45;35.20;1.00
31991;DHT22;18508;49.386;8.370;2023-06-05T14:57:30;35.60;1.00
31991;DHT22;18508;49.386;8.370;2023-06-05T14:59:58;35.80;1.00
31991;DHT22;18508;49.386;8.370;2023-06-05T15:02:30;36.20;1.00
31991;DHT22;18508;49.386;8.370;2023-06-05T15:04:58;36.60;1.00
31991;DHT22;18508;49.386;8.370;2023-06-05T15:07:34;36.80;1.00
31991;DHT22;18508;49.386;8.370;2023-06-05T15:10:03;36.80;1.00
31991;DHT22;18508;49.386;8.370;2023-06-05T15:12:32;36.20;1.00
31991;DHT22;18508;49.386;8.370;2023-06-05T15:15:01;36.90;1.00
31991;DHT22;18508;49.386;8.370;2023-06-05T15:17:48;37.00;1.00
31991;DHT22;18508;49.386;8.370;2023-06-05T15:20:19;36.50;1.00
31991;DHT22;18508;49.386;8.370;2023-06-05T15:22:52;36.60;1.00
31991;DHT22;18508;49.386;8.370;2023-06-05T15:25:23;36.70;1.00
31991;DHT22;18508;49.386;8.370;2023-06-05T15:27:52;36.40;1.00
31991;DHT22;18508;49.386;8.370;2023-06-05T15:30:20;36.60;1.00
31991;DHT22;18508;49.386;8.370;2023-06-05T15:32:50;36.40;1.00
31991;DHT22;18508;49.386;8.370;2023-06-05T15:35:20;36.60;1.00
31991;DHT22;18508;49.386;8.370;2023-06-05T15:37:48;36.90;1.00
31991;DHT22;18508;49.386;8.370;2023-06-05T15:40:17;36.20;1.00
31991;DHT22;18508;49.386;8.370;2023-06-05T15:42:47;36.20;1.00
31991;DHT22;18508;49.386;8.370;2023-06-05T15:45:15;36.00;1.00
31991;DHT22;18508;49.386;8.370;2023-06-05T15:47:43;36.30;1.00
31991;DHT22;18508;49.386;8.370;2023-06-05T15:50:13;36.40;1.00
31991;DHT22;18508;49.386;8.370;2023-06-05T15:52:41;36.60;1.00
31991;DHT22;18508;49.386;8.370;2023-06-05T15:55:09;36.50;1.00
31991;DHT22;18508;49.386;8.370;2023-06-05T15:57:37;36.70;1.00
31991;DHT22;18508;49.386;8.370;2023-06-05T16:00:08;35.40;1.00
31991;DHT22;18508;49.386;8.370;2023-06-05T16:02:36;35.10;1.00
31991;DHT22;18508;49.386;8.370;2023-06-05T16:05:06;34.90;1.00
31991;DHT22;18508;49.386;8.370;2023-06-05T16:07:36;35.20;1.00
31991;DHT22;18508;49.386;8.370;2023-06-05T16:10:05;35.40;1.00
31991;DHT22;18508;49.386;8.370;2023-06-05T16:12:33;34.70;1.00
31991;DHT22;18508;49.386;8.370;2023-06-05T16:15:02;35.00;1.00